Aeroporto :
LOGIN :

Iscrizione | Disclaimer

   EN    FR    IT 

 










Sommario :    VFR   VFR Marginale   IFR   IFR Intensivo   IFR Molto Intensivo
Visibilità : 
Base nubi : 
>= 8 km
>= 3000ft
5 / 8 km
1000 / 3000 ft
1500m / 5 km
500 / 1000 ft
800 / 1500m
200 / 500 ft
< 800m
< 200 ft
Simboli :   Temporali  Nebbia  Neve Forte  Precipitazioni Forti  Vento > 20 kt
SIGMETs :   Varie  Temporali  Ghiacco  Turbolenza  Onda orograficha  Ceneri Vulcaniche






- Altitudine del aeroporto : 26 ft
- Codice IATA : BIA


LFKB - Bastia

ULTIMO METAR :
  • 212230Z AUTO 15004KT 120V180 9999 FEW027 BKN033 BKN044 12/09 Q1034 TEMPO RA

METARs OBSOLETI :
  • 212200Z AUTO 16005KT 9999 BKN031 OVC040 12/09 Q1034 TEMPO RA
  • 212130Z AUTO 17004KT 9999 BKN028 OVC036 12/08 Q1034 TEMPO RA
  • 212100Z AUTO 16003KT 9999 BKN029 OVC037 12/08 Q1034 TEMPO RA
  • 212030Z AUTO 17004KT 9999 BKN029 OVC035 12/08 Q1034 TEMPO RA
  • 212000Z AUTO 16004KT 9999 BKN031 BKN037 OVC044 11/08 Q1034 NOSIG

TAF TAF LFKB
Valido dal 21 a 21 ore il 22 a 21 ore UTC


212000Z 2121/2221 16006KT 9999 BKN026 TX17/2213Z TN08/2204Z
TEMPO 2121/2204 RA
BECMG 2208/2211 18015G25KT NSC
ATIS : +33 4 95 59 19 40



MetMap, La meteo Aeronautica in un colpo d'occhio ! - Copyright ORBIFLY Dicembre 2007 - Disclaimer

ORBIFLY MET'MAP TEAM :

Programmazione e sviluppo : Alexandra Zaïnal
Concezione : Baudouin d'Aumeries
Aiuto per la programmazione : Marc-Olivier Méhu
Supporto tecnico e logistico : Manuel Goepfert
Aiuto per la traduzione : Arnaldo La Scala

Contatto : metmap@orbifly.com




FONTI E CREDITI :

   NOAA